Phoenix, Arizona
Traffic Map
Current Weather Conditions
Phoenix, Arizona
Broken Clouds
Broken Clouds
96°
Feels Like: 96°
Wind Chill: 96° Ceiling: 11000
Heat Index: 96° Visibility: 10mi
Dew Point: 54° Wind: 18mph
Humidity: 24% Direction: 320° (NW)
Pressure: 29.87in Gusts: 29mph
Raw Report DataKPHX 010551Z 32016G25KT 10SM FEW090 BKN110 BKN180 36/12 A2987 RMK AO2 PK WND 29030/0514 WSHFT 0511 SLP090 CONS LTGCGIC DSNT S-NW CB DSNT S-NW T03560122 10428 20356 51023
Traffic Incident Summary
Active as of:
Severity:
Category:
InformationThere was an issue retrieving the traffic information for this location. Please try a different location or try again shortly.
Advertisements
Track Severe Weather on mobile